createdAt,value
2019-04-30T00:00:21.362Z,1022.52
2019-04-30T00:01:21.321Z,1022.55
2019-04-30T00:03:21.435Z,1022.57
2019-04-30T00:04:21.362Z,1022.57
2019-04-30T00:05:21.409Z,1022.56
2019-04-30T00:06:21.373Z,1022.54
2019-04-30T00:08:21.551Z,1022.58
2019-04-30T00:09:21.387Z,1022.58
2019-04-30T00:10:21.442Z,1022.60
2019-04-30T00:11:21.393Z,1022.54
2019-04-30T00:14:21.371Z,1022.62
2019-04-30T00:15:21.385Z,1022.60
2019-04-30T00:16:21.386Z,1022.51
2019-04-30T00:17:21.394Z,1022.57
2019-04-30T00:19:21.463Z,1022.57
2019-04-30T00:20:21.412Z,1022.58
2019-04-30T00:21:21.407Z,1022.59
2019-04-30T00:22:31.018Z,1022.54
2019-04-30T00:24:21.405Z,1022.51
2019-04-30T00:25:24.923Z,1022.50
2019-04-30T00:26:21.409Z,1022.55
2019-04-30T00:27:25.757Z,1022.54
2019-04-30T00:29:26.849Z,1022.58
2019-04-30T00:30:21.382Z,1022.54
2019-04-30T00:31:23.585Z,1022.58
2019-04-30T00:32:21.438Z,1022.54
2019-04-30T00:34:21.435Z,1022.57
2019-04-30T00:35:21.396Z,1022.49
2019-04-30T00:36:21.389Z,1022.53
2019-04-30T00:38:21.415Z,1022.49
2019-04-30T00:39:21.396Z,1022.53
2019-04-30T00:40:21.763Z,1022.49
2019-04-30T00:41:21.405Z,1022.44
2019-04-30T00:43:21.419Z,1022.50
2019-04-30T00:44:24.855Z,1022.56
2019-04-30T00:45:21.392Z,1022.46
2019-04-30T00:46:24.912Z,1022.46
2019-04-30T00:49:23.389Z,1022.46
2019-04-30T00:50:21.429Z,1022.49
2019-04-30T00:51:21.617Z,1022.49
2019-04-30T00:52:21.422Z,1022.47
2019-04-30T00:55:21.475Z,1022.43
2019-04-30T00:56:24.810Z,1022.42
2019-04-30T00:57:21.410Z,1022.46
2019-04-30T00:58:25.866Z,1022.43
2019-04-30T01:00:25.921Z,1022.42
2019-04-30T01:01:21.422Z,1022.42
2019-04-30T01:02:28.905Z,1022.37
2019-04-30T01:03:21.884Z,1022.35
2019-04-30T01:05:21.386Z,1022.33
2019-04-30T01:06:25.922Z,1022.34
2019-04-30T01:07:21.460Z,1022.34
2019-04-30T01:08:27.190Z,1022.32
2019-04-30T01:10:24.727Z,1022.28
2019-04-30T01:11:21.404Z,1022.28
2019-04-30T01:12:27.687Z,1022.26
2019-04-30T01:13:21.431Z,1022.33
2019-04-30T01:15:21.396Z,1022.30
2019-04-30T01:16:23.584Z,1022.29
2019-04-30T01:17:21.444Z,1022.21
2019-04-30T01:18:23.600Z,1022.29
2019-04-30T01:20:24.137Z,1022.22
2019-04-30T01:21:21.451Z,1022.24
2019-04-30T01:23:21.451Z,1022.28
2019-04-30T01:24:23.562Z,1022.26
2019-04-30T01:25:21.479Z,1022.28
2019-04-30T01:26:22.893Z,1022.26
2019-04-30T01:28:24.219Z,1022.27
2019-04-30T01:29:21.462Z,1022.23
2019-04-30T01:30:22.874Z,1022.24
2019-04-30T01:31:21.488Z,1022.22
2019-04-30T01:34:21.456Z,1022.17
2019-04-30T01:35:23.788Z,1022.18
2019-04-30T01:36:21.439Z,1022.19
2019-04-30T01:37:28.294Z,1022.17
2019-04-30T01:39:23.715Z,1022.18
2019-04-30T01:40:21.460Z,1022.19
2019-04-30T01:42:21.596Z,1022.18
2019-04-30T01:43:30.483Z,1022.15
2019-04-30T01:44:21.470Z,1022.23
2019-04-30T01:45:23.204Z,1022.18
2019-04-30T01:48:21.622Z,1022.21
2019-04-30T01:49:25.456Z,1022.22
2019-04-30T01:50:21.447Z,1022.23
2019-04-30T01:51:21.965Z,1022.21
2019-04-30T01:53:21.460Z,1022.18
2019-04-30T01:54:24.186Z,1022.20
2019-04-30T01:55:21.515Z,1022.22
2019-04-30T01:56:21.537Z,1022.17
2019-04-30T01:58:21.465Z,1022.14
2019-04-30T01:59:21.497Z,1022.18
2019-04-30T02:00:21.597Z,1022.11
2019-04-30T02:01:21.487Z,1022.16
2019-04-30T02:03:21.458Z,1022.18
2019-04-30T02:04:21.479Z,1022.14
2019-04-30T02:05:21.523Z,1022.10
2019-04-30T02:06:21.446Z,1022.12
2019-04-30T02:08:21.543Z,1022.10
2019-04-30T02:09:21.553Z,1022.16
2019-04-30T02:10:21.494Z,1022.19
2019-04-30T02:11:21.483Z,1022.15
2019-04-30T02:14:21.530Z,1022.14
2019-04-30T02:15:21.536Z,1022.14
2019-04-30T02:16:21.495Z,1022.12
2019-04-30T02:17:21.522Z,1022.15
2019-04-30T02:19:21.536Z,1022.18
2019-04-30T02:20:21.532Z,1022.19
2019-04-30T02:21:21.528Z,1022.15
2019-04-30T02:22:21.475Z,1022.16
2019-04-30T02:25:21.484Z,1022.17
2019-04-30T02:26:21.542Z,1022.19
2019-04-30T02:27:21.714Z,1022.12
2019-04-30T02:28:21.515Z,1022.15
2019-04-30T02:30:21.500Z,1022.17
2019-04-30T02:31:22.815Z,1022.25
2019-04-30T02:32:21.522Z,1022.17
2019-04-30T02:33:21.521Z,1022.20
2019-04-30T02:35:21.523Z,1022.18
2019-04-30T02:36:21.520Z,1022.20
2019-04-30T02:37:21.483Z,1022.22
2019-04-30T02:38:21.526Z,1022.18
2019-04-30T02:41:21.511Z,1022.28
2019-04-30T02:42:21.543Z,1022.21
2019-04-30T02:43:21.528Z,1022.21
2019-04-30T02:44:21.550Z,1022.27
2019-04-30T02:46:21.551Z,1022.24
2019-04-30T02:47:21.550Z,1022.21
2019-04-30T02:48:21.513Z,1022.18
2019-04-30T02:49:21.545Z,1022.26
2019-04-30T02:51:22.986Z,1022.20
2019-04-30T02:52:21.536Z,1022.22
2019-04-30T02:53:21.523Z,1022.21
2019-04-30T02:54:24.131Z,1022.24
2019-04-30T02:56:21.724Z,1022.18
2019-04-30T02:57:23.305Z,1022.24
2019-04-30T02:58:21.567Z,1022.21
2019-04-30T02:59:21.558Z,1022.25
2019-04-30T03:01:21.539Z,1022.24
2019-04-30T03:02:21.586Z,1022.19
2019-04-30T03:03:24.959Z,1022.24
2019-04-30T03:04:21.538Z,1022.22
2019-04-30T03:07:21.561Z,1022.22
2019-04-30T03:08:21.539Z,1022.22
2019-04-30T03:09:21.565Z,1022.22
2019-04-30T03:10:21.563Z,1022.21
2019-04-30T03:12:21.553Z,1022.22
2019-04-30T03:13:21.548Z,1022.21
2019-04-30T03:14:21.584Z,1022.16
2019-04-30T03:15:22.864Z,1022.22
2019-04-30T03:17:21.553Z,1022.18
2019-04-30T03:18:23.015Z,1022.20
2019-04-30T03:19:21.549Z,1022.18
2019-04-30T03:20:34.755Z,1022.19
2019-04-30T03:22:21.559Z,1022.12
2019-04-30T03:23:21.530Z,1022.15
2019-04-30T03:24:21.570Z,1022.14
2019-04-30T03:25:21.584Z,1022.15
2019-04-30T03:28:21.590Z,1022.12
2019-04-30T03:29:23.923Z,1022.16
2019-04-30T03:30:22.263Z,1022.16
2019-04-30T03:31:22.830Z,1022.10
2019-04-30T03:33:22.885Z,1022.10
2019-04-30T03:34:25.113Z,1022.05
2019-04-30T03:35:23.169Z,1022.10
2019-04-30T03:36:22.092Z,1022.12
2019-04-30T03:38:21.607Z,1022.09
2019-04-30T03:39:21.555Z,1022.11
2019-04-30T03:40:21.564Z,1022.14
2019-04-30T03:41:21.582Z,1022.10
2019-04-30T03:43:21.582Z,1022.13
2019-04-30T03:44:25.613Z,1022.08
2019-04-30T03:46:21.600Z,1022.08
2019-04-30T03:47:21.627Z,1022.09
2019-04-30T03:48:21.605Z,1022.10
2019-04-30T03:49:21.565Z,1022.09
2019-04-30T03:51:21.609Z,1022.07
2019-04-30T03:52:21.594Z,1022.02
2019-04-30T03:53:21.614Z,1022.04
2019-04-30T03:54:21.597Z,1022.10
2019-04-30T03:56:22.943Z,1022.07
2019-04-30T03:57:21.623Z,1022.05
2019-04-30T03:58:21.696Z,1022.00
2019-04-30T03:59:21.653Z,1021.99
2019-04-30T04:01:21.623Z,1022.03
2019-04-30T04:02:21.610Z,1021.93
2019-04-30T04:03:21.619Z,1021.92
2019-04-30T04:04:21.607Z,1021.98
2019-04-30T04:06:21.673Z,1021.96
2019-04-30T04:07:21.647Z,1022.02
2019-04-30T04:08:21.648Z,1022.04
2019-04-30T04:09:22.366Z,1022.00
2019-04-30T04:11:21.628Z,1022.04
2019-04-30T04:12:21.647Z,1022.03
2019-04-30T04:13:21.640Z,1022.03
2019-04-30T04:14:21.653Z,1022.01
2019-04-30T04:16:21.639Z,1022.07
2019-04-30T04:17:21.635Z,1022.01
2019-04-30T04:19:21.626Z,1022.05
2019-04-30T04:20:21.643Z,1022.00
2019-04-30T04:21:21.623Z,1022.05
2019-04-30T04:22:21.683Z,1022.05
2019-04-30T04:24:21.629Z,1022.05
2019-04-30T04:25:21.656Z,1022.06
2019-04-30T04:26:21.678Z,1022.10
2019-04-30T04:27:21.650Z,1022.04
2019-04-30T04:29:21.639Z,1022.03
2019-04-30T04:30:21.680Z,1022.02
2019-04-30T04:31:21.619Z,1022.06
2019-04-30T04:32:24.232Z,1022.04
2019-04-30T04:34:21.624Z,1022.09
2019-04-30T04:35:21.654Z,1022.10
2019-04-30T04:36:21.644Z,1022.06
2019-04-30T04:37:21.676Z,1022.05
2019-04-30T04:39:21.683Z,1022.03
2019-04-30T04:40:21.644Z,1022.02
2019-04-30T04:41:21.617Z,1022.01
2019-04-30T04:42:21.692Z,1022.04
2019-04-30T04:44:21.735Z,1022.05
2019-04-30T04:45:21.652Z,1022.06
2019-04-30T04:46:21.659Z,1022.08
2019-04-30T04:47:21.639Z,1022.09
2019-04-30T04:49:21.644Z,1022.09
2019-04-30T04:50:21.718Z,1022.13
2019-04-30T04:51:34.461Z,1022.05
2019-04-30T04:52:22.180Z,1022.05
2019-04-30T04:54:21.683Z,1022.09
2019-04-30T04:55:22.220Z,1022.05
2019-04-30T04:56:21.642Z,1022.08
2019-04-30T04:57:22.527Z,1022.06
2019-04-30T04:59:21.659Z,1022.00
2019-04-30T05:01:21.649Z,1022.02
2019-04-30T05:02:21.677Z,1022.03
2019-04-30T05:03:21.632Z,1022.06
2019-04-30T05:04:21.704Z,1022.05
2019-04-30T05:06:22.403Z,1022.06
2019-04-30T05:07:21.657Z,1022.07
2019-04-30T05:08:21.699Z,1022.01
2019-04-30T05:09:21.645Z,1022.05
2019-04-30T05:11:21.658Z,1022.08
2019-04-30T05:12:21.671Z,1022.03
2019-04-30T05:13:21.704Z,1022.09
2019-04-30T05:14:21.660Z,1022.08
2019-04-30T05:16:21.702Z,1022.14
2019-04-30T05:17:21.644Z,1022.14
2019-04-30T05:18:22.795Z,1022.10
2019-04-30T05:19:21.774Z,1022.14
2019-04-30T05:21:21.710Z,1022.21
2019-04-30T05:22:21.672Z,1022.13
2019-04-30T05:23:22.026Z,1022.18
2019-04-30T05:24:21.691Z,1022.14
2019-04-30T05:26:22.905Z,1022.18
2019-04-30T05:27:21.661Z,1022.19
2019-04-30T05:28:21.727Z,1022.18
2019-04-30T05:29:21.682Z,1022.17
2019-04-30T05:32:21.692Z,1022.20
2019-04-30T05:33:21.653Z,1022.28
2019-04-30T05:34:21.698Z,1022.27
2019-04-30T05:35:21.717Z,1022.26
2019-04-30T05:37:22.509Z,1022.25
2019-04-30T05:38:21.725Z,1022.25
2019-04-30T05:39:21.718Z,1022.32
2019-04-30T05:40:21.875Z,1022.32
2019-04-30T05:42:21.725Z,1022.34
2019-04-30T05:43:21.719Z,1022.35
2019-04-30T05:44:21.692Z,1022.36
2019-04-30T05:45:21.678Z,1022.39
2019-04-30T05:47:21.755Z,1022.37
2019-04-30T05:48:21.701Z,1022.39
2019-04-30T05:49:21.737Z,1022.40
2019-04-30T05:50:21.726Z,1022.36
2019-04-30T05:53:21.739Z,1022.31
2019-04-30T05:54:21.880Z,1022.35
2019-04-30T05:55:21.859Z,1022.35
2019-04-30T05:56:21.718Z,1022.34
2019-04-30T05:58:21.695Z,1022.37
2019-04-30T05:59:21.739Z,1022.35
2019-04-30T06:00:21.754Z,1022.33
2019-04-30T06:01:24.249Z,1022.35
2019-04-30T06:03:28.165Z,1022.39
2019-04-30T06:04:21.726Z,1022.35
2019-04-30T06:05:21.781Z,1022.36
2019-04-30T06:06:21.762Z,1022.36
2019-04-30T06:08:21.750Z,1022.36
2019-04-30T06:09:31.026Z,1022.34
2019-04-30T06:11:21.698Z,1022.38
2019-04-30T06:12:21.763Z,1022.33
2019-04-30T06:13:21.696Z,1022.35
2019-04-30T06:14:21.768Z,1022.32
2019-04-30T06:17:21.728Z,1022.45
2019-04-30T06:18:21.766Z,1022.44
2019-04-30T06:19:21.736Z,1022.41
2019-04-30T06:21:21.744Z,1022.49
2019-04-30T06:22:21.764Z,1022.48
2019-04-30T06:23:21.741Z,1022.47
2019-04-30T06:24:21.742Z,1022.47
2019-04-30T06:26:21.816Z,1022.50
2019-04-30T06:27:21.754Z,1022.49
2019-04-30T06:28:21.767Z,1022.48
2019-04-30T06:29:21.727Z,1022.52
2019-04-30T06:31:31.845Z,1022.60
2019-04-30T06:32:21.765Z,1022.53
2019-04-30T06:33:21.753Z,1022.61
2019-04-30T06:34:21.726Z,1022.54
2019-04-30T06:36:21.778Z,1022.53
2019-04-30T06:37:21.764Z,1022.57
2019-04-30T06:38:21.732Z,1022.58
2019-04-30T06:39:21.759Z,1022.59
2019-04-30T06:41:21.766Z,1022.63
2019-04-30T06:42:21.775Z,1022.68
2019-04-30T06:43:21.780Z,1022.66
2019-04-30T06:44:21.769Z,1022.63
2019-04-30T06:46:21.885Z,1022.69
2019-04-30T06:47:32.475Z,1022.69
2019-04-30T06:48:21.793Z,1022.65
2019-04-30T06:49:21.749Z,1022.62
2019-04-30T06:51:21.815Z,1022.73
2019-04-30T06:52:23.541Z,1022.72
2019-04-30T06:53:21.893Z,1022.65
2019-04-30T06:54:21.765Z,1022.72
2019-04-30T06:56:21.790Z,1022.70
2019-04-30T06:57:21.771Z,1022.73
2019-04-30T06:58:21.991Z,1022.69
2019-04-30T06:59:21.759Z,1022.71
2019-04-30T07:01:21.746Z,1022.69
2019-04-30T07:02:21.816Z,1022.76
2019-04-30T07:03:21.823Z,1022.75
2019-04-30T07:04:21.860Z,1022.67
2019-04-30T07:06:29.836Z,1022.72
2019-04-30T07:07:23.064Z,1022.72
2019-04-30T07:08:21.907Z,1022.73
2019-04-30T07:09:21.804Z,1022.79
2019-04-30T07:11:21.772Z,1022.78
2019-04-30T07:12:27.229Z,1022.76
2019-04-30T07:13:21.865Z,1022.75
2019-04-30T07:14:21.801Z,1022.70
2019-04-30T07:16:21.816Z,1022.66
2019-04-30T07:17:21.803Z,1022.74
2019-04-30T07:18:21.786Z,1022.73
2019-04-30T07:19:31.939Z,1022.72
2019-04-30T07:21:21.828Z,1022.75
2019-04-30T07:22:36.486Z,1022.76
2019-04-30T07:23:21.814Z,1022.73
2019-04-30T07:24:21.941Z,1022.80
2019-04-30T07:26:24.367Z,1022.76
2019-04-30T07:27:24.131Z,1022.79
2019-04-30T07:28:21.786Z,1022.74
2019-04-30T07:29:21.859Z,1022.73
2019-04-30T07:31:21.787Z,1022.76
2019-04-30T07:32:21.812Z,1022.75
2019-04-30T07:33:21.812Z,1022.76
2019-04-30T07:34:21.821Z,1022.80
2019-04-30T07:36:21.864Z,1022.80
2019-04-30T07:37:24.517Z,1022.77
2019-04-30T07:38:21.840Z,1022.80
2019-04-30T07:39:23.515Z,1022.82
2019-04-30T07:42:21.798Z,1022.75
2019-04-30T07:43:21.850Z,1022.83
2019-04-30T07:44:31.058Z,1022.87
2019-04-30T07:45:25.588Z,1022.88
2019-04-30T07:47:21.845Z,1022.83
2019-04-30T07:48:26.292Z,1022.87
2019-04-30T07:49:21.817Z,1022.90
2019-04-30T07:50:22.440Z,1022.90
2019-04-30T07:52:22.413Z,1022.86
2019-04-30T07:53:21.847Z,1022.91
2019-04-30T07:54:21.841Z,1022.91
2019-04-30T07:55:21.946Z,1022.95
2019-04-30T07:57:21.832Z,1022.93
2019-04-30T07:58:21.876Z,1022.93
2019-04-30T07:59:21.851Z,1022.93
2019-04-30T08:00:21.848Z,1022.88
2019-04-30T08:02:21.846Z,1022.85
2019-04-30T08:03:22.044Z,1022.84
2019-04-30T08:04:21.876Z,1022.79
2019-04-30T08:05:21.893Z,1022.82
2019-04-30T08:07:21.903Z,1022.85
2019-04-30T08:08:25.446Z,1022.87
2019-04-30T08:09:22.249Z,1022.81
2019-04-30T08:10:21.833Z,1022.82
2019-04-30T08:13:22.409Z,1022.85
2019-04-30T08:14:24.348Z,1022.87
2019-04-30T08:15:21.907Z,1022.85
2019-04-30T08:16:21.832Z,1022.89
2019-04-30T08:18:21.901Z,1022.87
2019-04-30T08:19:21.871Z,1022.89
2019-04-30T08:20:21.890Z,1022.83
2019-04-30T08:21:21.884Z,1022.83
2019-04-30T08:23:34.139Z,1022.84
2019-04-30T08:24:21.895Z,1022.81
2019-04-30T08:25:22.119Z,1022.90
2019-04-30T08:26:21.941Z,1022.85
2019-04-30T08:28:21.902Z,1022.77
2019-04-30T08:29:22.065Z,1022.88
2019-04-30T08:30:26.661Z,1022.87
2019-04-30T08:31:22.362Z,1022.84
2019-04-30T08:34:21.907Z,1022.87
2019-04-30T08:35:21.879Z,1022.83
2019-04-30T08:36:21.911Z,1022.82
2019-04-30T08:37:21.950Z,1022.81
2019-04-30T08:39:22.108Z,1022.84
2019-04-30T08:40:21.999Z,1022.80
2019-04-30T08:41:22.056Z,1022.80
2019-04-30T08:42:30.738Z,1022.78
2019-04-30T08:45:21.904Z,1022.83
2019-04-30T08:46:21.994Z,1022.84
2019-04-30T08:47:21.867Z,1022.79
2019-04-30T08:48:22.187Z,1022.79
2019-04-30T08:50:22.201Z,1022.77
2019-04-30T08:51:21.923Z,1022.82
2019-04-30T08:52:21.969Z,1022.85
2019-04-30T08:53:29.734Z,1022.81
2019-04-30T08:55:22.506Z,1022.87
2019-04-30T08:56:22.059Z,1022.78
2019-04-30T08:57:22.146Z,1022.82
2019-04-30T08:58:21.965Z,1022.80
2019-04-30T09:01:21.950Z,1022.81
2019-04-30T09:02:22.009Z,1022.76
2019-04-30T09:03:21.957Z,1022.72
2019-04-30T09:04:21.917Z,1022.74
2019-04-30T09:06:21.997Z,1022.72
2019-04-30T09:07:22.040Z,1022.74
2019-04-30T09:08:22.251Z,1022.80
2019-04-30T09:09:21.981Z,1022.82
2019-04-30T09:11:27.361Z,1022.81
2019-04-30T09:12:22.070Z,1022.76
2019-04-30T09:13:22.074Z,1022.73
2019-04-30T09:14:21.999Z,1022.74
2019-04-30T09:16:22.004Z,1022.73
2019-04-30T09:17:21.923Z,1022.73
2019-04-30T09:18:22.045Z,1022.76
2019-04-30T09:19:22.016Z,1022.75
2019-04-30T09:21:21.987Z,1022.68
2019-04-30T09:22:21.968Z,1022.73
2019-04-30T09:23:21.977Z,1022.60
2019-04-30T09:24:21.981Z,1022.73
2019-04-30T09:27:22.019Z,1022.66
2019-04-30T09:28:22.094Z,1022.67
2019-04-30T09:29:21.976Z,1022.72
2019-04-30T09:30:21.943Z,1022.71
2019-04-30T09:33:22.138Z,1022.62
2019-04-30T09:34:22.021Z,1022.67
2019-04-30T09:35:22.035Z,1022.65
2019-04-30T09:36:21.980Z,1022.67
2019-04-30T09:38:22.029Z,1022.63
2019-04-30T09:39:23.159Z,1022.66
2019-04-30T09:40:22.022Z,1022.68
2019-04-30T09:41:21.956Z,1022.65
2019-04-30T09:43:21.948Z,1022.61
2019-04-30T09:44:21.959Z,1022.66
2019-04-30T09:45:22.263Z,1022.65
2019-04-30T09:46:26.367Z,1022.67
2019-04-30T09:48:22.004Z,1022.66
2019-04-30T09:49:22.058Z,1022.64
2019-04-30T09:50:22.470Z,1022.65
2019-04-30T09:51:24.574Z,1022.69
2019-04-30T09:53:22.049Z,1022.62
2019-04-30T09:54:22.170Z,1022.67
2019-04-30T09:55:22.008Z,1022.62
2019-04-30T09:56:22.012Z,1022.57
2019-04-30T09:58:22.034Z,1022.56
2019-04-30T09:59:22.047Z,1022.69
2019-04-30T10:00:22.022Z,1022.62
2019-04-30T10:01:22.175Z,1022.53
2019-04-30T10:03:22.640Z,1022.64
2019-04-30T10:04:22.557Z,1022.58
2019-04-30T10:05:21.968Z,1022.67
2019-04-30T10:06:22.013Z,1022.63
2019-04-30T10:08:22.145Z,1022.54
2019-04-30T10:09:22.311Z,1022.57
2019-04-30T10:10:22.035Z,1022.55
2019-04-30T10:11:21.998Z,1022.58
2019-04-30T10:13:22.029Z,1022.55
2019-04-30T10:14:22.157Z,1022.47
2019-04-30T10:15:22.070Z,1022.48
2019-04-30T10:16:22.057Z,1022.48
2019-04-30T10:19:22.037Z,1022.45
2019-04-30T10:20:21.993Z,1022.47
2019-04-30T10:21:22.000Z,1022.45
2019-04-30T10:22:22.061Z,1022.43
2019-04-30T10:24:22.143Z,1022.42
2019-04-30T10:25:21.987Z,1022.41
2019-04-30T10:26:22.156Z,1022.42
2019-04-30T10:27:22.112Z,1022.39
2019-04-30T10:29:22.007Z,1022.33
2019-04-30T10:30:22.074Z,1022.39
2019-04-30T10:31:22.108Z,1022.36
2019-04-30T10:32:22.170Z,1022.37
2019-04-30T10:34:22.041Z,1022.40
2019-04-30T10:35:22.053Z,1022.31
2019-04-30T10:36:22.034Z,1022.33
2019-04-30T10:37:22.065Z,1022.35
2019-04-30T10:39:22.280Z,1022.33
2019-04-30T10:40:22.112Z,1022.28
2019-04-30T10:41:22.032Z,1022.30
2019-04-30T10:42:22.023Z,1022.32
2019-04-30T10:44:22.074Z,1022.28
2019-04-30T10:45:22.031Z,1022.29
2019-04-30T10:46:22.046Z,1022.32
2019-04-30T10:47:22.178Z,1022.25
2019-04-30T10:50:22.030Z,1022.27
2019-04-30T10:51:22.063Z,1021.92
2019-04-30T10:52:22.039Z,1022.24
2019-04-30T10:53:22.062Z,1022.19
2019-04-30T10:55:22.072Z,1022.18
2019-04-30T10:56:22.178Z,1022.23
2019-04-30T10:57:22.053Z,1022.10
2019-04-30T10:58:22.228Z,1022.16
2019-04-30T11:01:22.120Z,1022.12
2019-04-30T11:02:22.047Z,1022.13
2019-04-30T11:03:23.116Z,1022.09
2019-04-30T11:04:22.047Z,1022.14
2019-04-30T11:06:22.078Z,1022.07
2019-04-30T11:07:22.071Z,1022.04
2019-04-30T11:08:22.077Z,1022.08
2019-04-30T11:09:22.051Z,1022.10
2019-04-30T11:11:22.048Z,1022.07
2019-04-30T11:13:22.086Z,1022.07
2019-04-30T11:14:22.047Z,1021.99
2019-04-30T11:15:22.037Z,1021.98
2019-04-30T11:16:22.081Z,1021.97
2019-04-30T11:18:22.274Z,1021.95
2019-04-30T11:19:22.315Z,1021.95
2019-04-30T11:20:22.510Z,1021.85
2019-04-30T11:21:22.240Z,1021.94
2019-04-30T11:23:22.314Z,1021.90
2019-04-30T11:24:22.127Z,1021.92
2019-04-30T11:25:22.488Z,1021.87
2019-04-30T11:26:22.635Z,1021.89
2019-04-30T11:28:22.505Z,1021.82
2019-04-30T11:29:23.267Z,1021.83
2019-04-30T11:30:24.387Z,1021.82
2019-04-30T11:31:22.347Z,1021.86
2019-04-30T11:34:22.062Z,1021.78
2019-04-30T11:35:22.234Z,1021.77
2019-04-30T11:36:22.099Z,1021.83
2019-04-30T11:37:22.187Z,1021.77
2019-04-30T11:39:22.167Z,1021.77
2019-04-30T11:40:31.463Z,1021.77
2019-04-30T11:41:30.250Z,1021.66
2019-04-30T11:42:22.144Z,1021.67
2019-04-30T11:45:22.092Z,1021.70
2019-04-30T11:46:22.089Z,1021.66
2019-04-30T11:47:22.249Z,1021.57
2019-04-30T11:48:22.118Z,1021.56
2019-04-30T11:50:22.112Z,1021.59
2019-04-30T11:51:22.212Z,1021.56
2019-04-30T11:52:22.084Z,1021.59
2019-04-30T11:53:27.686Z,1021.56
2019-04-30T11:55:22.081Z,1021.52
2019-04-30T11:56:22.120Z,1021.52
2019-04-30T11:57:22.086Z,1021.49
2019-04-30T11:58:22.175Z,1021.42
2019-04-30T12:00:22.245Z,1021.57
2019-04-30T12:01:22.070Z,1021.46
2019-04-30T12:03:22.094Z,1021.46
2019-04-30T12:04:22.068Z,1021.42
2019-04-30T12:05:22.091Z,1021.41
2019-04-30T12:06:22.098Z,1021.39
2019-04-30T12:09:22.083Z,1021.39
2019-04-30T12:10:22.136Z,1021.40
2019-04-30T12:11:22.096Z,1021.40
2019-04-30T12:13:22.120Z,1021.35
2019-04-30T12:14:22.095Z,1021.37
2019-04-30T12:15:22.152Z,1021.30
2019-04-30T12:16:22.177Z,1021.35
2019-04-30T12:18:22.138Z,1021.32
2019-04-30T12:19:22.130Z,1021.40
2019-04-30T12:20:22.107Z,1021.31
2019-04-30T12:21:22.140Z,1021.33
2019-04-30T12:23:22.146Z,1021.41
2019-04-30T12:24:22.085Z,1021.41
2019-04-30T12:25:22.121Z,1021.32
2019-04-30T12:26:22.129Z,1021.32
2019-04-30T12:28:22.136Z,1021.31
2019-04-30T12:29:22.231Z,1021.40
2019-04-30T12:30:22.145Z,1021.31
2019-04-30T12:31:22.136Z,1021.37
2019-04-30T12:34:22.136Z,1021.36
2019-04-30T12:35:22.145Z,1021.30
2019-04-30T12:36:22.481Z,1021.30
2019-04-30T12:37:22.148Z,1021.26
2019-04-30T12:39:22.126Z,1021.26
2019-04-30T12:40:28.993Z,1021.29
2019-04-30T12:41:22.079Z,1021.29
2019-04-30T12:42:22.140Z,1021.30
2019-04-30T12:44:22.743Z,1021.28
2019-04-30T12:45:22.210Z,1021.26
2019-04-30T12:46:22.215Z,1021.20
2019-04-30T12:47:22.119Z,1021.27
2019-04-30T12:49:22.112Z,1021.24
2019-04-30T12:50:22.145Z,1021.21
2019-04-30T12:51:22.119Z,1021.28
2019-04-30T12:52:22.143Z,1021.17
2019-04-30T12:54:22.169Z,1021.19
2019-04-30T12:55:22.489Z,1021.16
2019-04-30T12:57:22.292Z,1021.22
2019-04-30T12:58:22.149Z,1021.13
2019-04-30T12:59:22.267Z,1021.18
2019-04-30T13:00:22.265Z,1021.12
2019-04-30T13:03:22.188Z,1021.07
2019-04-30T13:04:22.159Z,1021.05
2019-04-30T13:05:22.186Z,1021.13
2019-04-30T13:06:22.685Z,1021.10
2019-04-30T13:08:22.652Z,1021.06
2019-04-30T13:09:22.599Z,1021.03
2019-04-30T13:10:22.678Z,1021.00
2019-04-30T13:11:23.334Z,1021.00
2019-04-30T13:13:22.793Z,1021.04
2019-04-30T13:14:22.887Z,1021.06
2019-04-30T13:15:22.334Z,1020.94
2019-04-30T13:16:22.211Z,1020.91
2019-04-30T13:18:22.177Z,1020.88
2019-04-30T13:19:22.152Z,1020.86
2019-04-30T13:20:24.121Z,1020.91
2019-04-30T13:21:22.204Z,1020.91
2019-04-30T13:23:22.184Z,1020.88
2019-04-30T13:24:22.210Z,1020.88
2019-04-30T13:26:22.283Z,1020.79
2019-04-30T13:28:22.491Z,1020.85
2019-04-30T13:29:22.496Z,1020.86
2019-04-30T13:30:22.629Z,1020.84
2019-04-30T13:31:22.173Z,1020.90
2019-04-30T13:34:22.589Z,1020.80
2019-04-30T13:35:22.212Z,1020.72
2019-04-30T13:36:22.339Z,1020.83
2019-04-30T13:37:22.217Z,1020.77
2019-04-30T13:40:22.178Z,1020.75
2019-04-30T13:41:22.186Z,1020.75
2019-04-30T13:42:22.177Z,1020.77
2019-04-30T13:43:22.320Z,1020.70
2019-04-30T13:46:22.390Z,1020.70
2019-04-30T13:47:22.178Z,1020.69
2019-04-30T13:48:22.185Z,1020.61
2019-04-30T13:49:22.253Z,1020.69
2019-04-30T13:51:22.223Z,1020.63
2019-04-30T13:52:22.247Z,1020.69
2019-04-30T13:53:22.153Z,1020.68
2019-04-30T13:54:22.190Z,1020.69
2019-04-30T13:56:22.214Z,1020.59
2019-04-30T13:57:22.237Z,1020.61
2019-04-30T13:58:22.406Z,1020.66
2019-04-30T13:59:22.252Z,1020.60
2019-04-30T14:01:22.336Z,1020.63
2019-04-30T14:02:22.228Z,1020.59
2019-04-30T14:03:22.276Z,1020.64
2019-04-30T14:04:22.196Z,1020.61
2019-04-30T14:05:22.273Z,1020.65
2019-04-30T14:07:22.192Z,1020.57
2019-04-30T14:08:22.273Z,1020.59
2019-04-30T14:09:22.205Z,1020.55
2019-04-30T14:10:22.295Z,1020.51
2019-04-30T14:12:22.245Z,1020.56
2019-04-30T14:13:22.234Z,1020.54
2019-04-30T14:14:22.163Z,1020.57
2019-04-30T14:15:22.159Z,1020.60
2019-04-30T14:18:30.903Z,1020.56
2019-04-30T14:19:22.380Z,1020.49
2019-04-30T14:20:22.245Z,1020.45
2019-04-30T14:21:32.197Z,1020.46
2019-04-30T14:23:22.197Z,1020.52
2019-04-30T14:24:22.192Z,1020.48
2019-04-30T14:25:22.230Z,1020.49
2019-04-30T14:26:22.185Z,1020.45
2019-04-30T14:28:22.240Z,1020.48
2019-04-30T14:29:22.250Z,1020.45
2019-04-30T14:30:22.250Z,1020.44
2019-04-30T14:31:22.232Z,1020.48
2019-04-30T14:33:25.951Z,1020.50
2019-04-30T14:34:22.295Z,1020.45
2019-04-30T14:35:22.275Z,1020.46
2019-04-30T14:36:22.388Z,1020.42
2019-04-30T14:39:22.257Z,1020.38
2019-04-30T14:40:22.724Z,1020.39
2019-04-30T14:41:22.708Z,1020.39
2019-04-30T14:42:22.891Z,1020.39
2019-04-30T14:44:22.788Z,1020.38
2019-04-30T14:45:22.684Z,1020.36
2019-04-30T14:46:22.715Z,1020.34
2019-04-30T14:47:23.266Z,1020.36
2019-04-30T14:49:23.186Z,1020.35
2019-04-30T14:50:22.263Z,1020.33
2019-04-30T14:51:22.347Z,1020.39
2019-04-30T14:52:22.262Z,1020.30
2019-04-30T14:55:22.275Z,1020.35
2019-04-30T14:56:22.213Z,1020.34
2019-04-30T14:57:22.262Z,1020.37
2019-04-30T14:58:22.432Z,1020.32
2019-04-30T15:00:22.486Z,1020.32
2019-04-30T15:01:22.231Z,1020.28
2019-04-30T15:02:22.398Z,1020.33
2019-04-30T15:03:22.251Z,1020.36
2019-04-30T15:05:22.339Z,1020.32
2019-04-30T15:06:22.305Z,1020.29
2019-04-30T15:07:22.280Z,1020.25
2019-04-30T15:08:22.303Z,1020.31
2019-04-30T15:11:22.292Z,1020.29
2019-04-30T15:12:22.283Z,1020.24
2019-04-30T15:13:22.316Z,1020.33
2019-04-30T15:14:22.424Z,1020.25
2019-04-30T15:16:22.307Z,1020.22
2019-04-30T15:17:22.294Z,1020.20
2019-04-30T15:18:22.313Z,1020.23
2019-04-30T15:21:22.295Z,1020.24
2019-04-30T15:22:22.550Z,1020.20
2019-04-30T15:23:22.275Z,1020.28
2019-04-30T15:24:22.325Z,1020.20
2019-04-30T15:26:24.932Z,1020.23
2019-04-30T15:27:22.302Z,1020.21
2019-04-30T15:28:22.506Z,1020.20
2019-04-30T15:29:22.281Z,1020.16
2019-04-30T15:31:22.319Z,1020.27
2019-04-30T15:32:22.322Z,1020.20
2019-04-30T15:33:22.329Z,1020.22
2019-04-30T15:34:22.393Z,1020.15
2019-04-30T15:37:23.805Z,1020.09
2019-04-30T15:38:22.442Z,1020.17
2019-04-30T15:39:22.316Z,1020.20
2019-04-30T15:40:22.290Z,1020.15
2019-04-30T15:43:22.310Z,1020.17
2019-04-30T15:44:22.318Z,1020.14
2019-04-30T15:45:22.300Z,1020.09
2019-04-30T15:46:22.291Z,1020.06
2019-04-30T15:48:24.759Z,1020.12
2019-04-30T15:49:22.327Z,1020.09
2019-04-30T15:50:22.303Z,1020.01
2019-04-30T15:51:22.317Z,1020.05